Terminal Aerodrome Forecast
Issued by NWS Wilmington, OH

Home | Current Version | Previous Version | Text Only | Print | Product List | Glossary On
Versions: 1 2 3 4 5 6 7 8 9 10 11 12 13 14 15 16 17 18 19 20 21 22 23 24 25 26 27 28 29
000
FTUS41 KILN 050200 AAC
TAFCVG
TAF AMD
KCVG 050216Z 0502/0606 33014G21KT 1 1/2SM -SN BR SCT007 BKN013
      OVC022
     FM050400 36010KT 2SM -SN BR OVC012
     FM050900 36010KT 4SM -SN OVC022
     FM051200 34010KT P6SM BKN025
     FM060000 35003KT P6SM BKN025=

USA.gov is the U.S. government's official web portal to all federal, state and local government web resources and services.